Jean, Nevada
Current Conditions -  °F | °C
As of 7:56 PM on Friday 19 Dec 2014 (Local Time) from KHND Reporting Station
Clear Clear  
Wind Chill: 48°   Ceiling: Unl
Heat Index: 48°   Visibility: 10mi
Dew Point: 41°   Wind: 3mph
Humidity: 77%   Direction: 300°WNW
Pressure: 30.19"   Gusts: NA
Location:  35.78°N, 115.32°W
Report Text: KHND 200356Z 30003KT 10SM CLR 09/05 A3019 RMK AO2 SLP230 T00890050
Loading
Personal Weather Stations






























Interactive Weather Map New forecast layout! Learn more

10-Day Weather Forecast

Advertisements
Track Severe Weather on mobile